»·PEaware :: N381PS L71-KSNA

N381PS :: L71-KSNA

FLIGHT INFORMATION

Flight Status: Arrived
Operator: Privately registered:
United States
More flights under this callsign
Pilot: Luis B. (14232)
Aircraft: Unknown
(DA62)
More flights by this aircraft type
Origin: L71 California City Mun
United States
Destination: KSNA John Wayne-Orange Co
United States
More flights between these airports :: More routes between these airports
Route: +PMD V201 BERRI V459 SLI
File this flight plan on PilotEdge
Remarks:
Altitude:
(Current/Filed)
9,000ft
Speed:
(Current/Filed)
170kts
Departed: 01-Oct-18 08:42 AM
Arrived: 01-Oct-18 09:34 AM
Distance/Time
Traveled:
89nm/0:52
Distance/Time
To Go:
Arrived

Flight Plot

Page will automatically refresh every two minutes.

Flight plan parsing failed; only flown route is shown


Map Options




Map Legend


Flown Route
Filed Route
Departure Airport
Arrival Airport
Navaid (VOR, NDB)
Fix

Horizontal Profiles

Position Reports

Time Latitude Longitude Heading Altitude Ground
Speed
01-Oct-18 08:34 35.149519 -118.014619 270 2427ft 0kts
01-Oct-18 08:35 35.149519 -118.014619 270 2427ft 0kts
01-Oct-18 08:36 35.149519 -118.014619 270 2427ft 0kts
01-Oct-18 08:37 35.149519 -118.014619 270 2427ft 0kts
01-Oct-18 08:38 35.149519 -118.014619 270 2427ft 0kts
01-Oct-18 08:39 35.150226 -118.015157 358 2427ft 6kts
01-Oct-18 08:40 35.150390 -118.017341 259 2427ft 9kts
01-Oct-18 08:41 35.149659 -118.020865 253 2427ft 11kts
01-Oct-18 08:42 35.148791 -118.024995 255 2427ft 12kts
01-Oct-18 08:43 35.148722 -118.026184 345 2427ft 0kts
01-Oct-18 08:44 35.150861 -118.018603 76 2428ft 90kts
01-Oct-18 08:45 35.155955 -117.984698 107 3213ft 111kts
01-Oct-18 08:46 35.133551 -117.963564 183 4230ft 111kts
01-Oct-18 08:47 35.106808 -117.979688 235 5266ft 118kts
01-Oct-18 08:48 35.096804 -118.017534 253 6332ft 118kts
01-Oct-18 08:49 35.092022 -118.057406 253 7351ft 118kts
01-Oct-18 08:50 35.085050 -118.096542 252 8352ft 118kts
01-Oct-18 08:51 35.069969 -118.129688 195 9006ft 132kts
01-Oct-18 08:52 35.031406 -118.139615 192 9000ft 148kts
01-Oct-18 08:53 34.990643 -118.149834 192 8998ft 151kts
01-Oct-18 08:54 34.949075 -118.143139 170 8997ft 153kts
01-Oct-18 08:55 34.907403 -118.132416 171 8997ft 153kts
01-Oct-18 08:56 34.867212 -118.122394 171 9000ft 154kts
01-Oct-18 08:57 34.825276 -118.112023 171 9000ft 154kts
01-Oct-18 08:58 34.783281 -118.101694 171 9000ft 154kts
01-Oct-18 08:59 34.741214 -118.091380 170 9013ft 154kts
01-Oct-18 09:00 34.699163 -118.081093 169 9018ft 154kts
01-Oct-18 09:01 34.657199 -118.070778 169 9018ft 154kts
01-Oct-18 09:02 34.616209 -118.079285 193 9019ft 154kts
01-Oct-18 09:03 34.575064 -118.093755 202 9018ft 155kts
01-Oct-18 09:04 34.535618 -118.115075 202 9009ft 155kts
01-Oct-18 09:05 34.496083 -118.136183 202 9008ft 155kts
01-Oct-18 09:06 34.456655 -118.157119 202 9008ft 155kts
01-Oct-18 09:07 34.416938 -118.178156 202 8953ft 156kts
01-Oct-18 09:08 34.377355 -118.199092 202 8953ft 155kts
01-Oct-18 09:09 34.337879 -118.219950 202 8917ft 156kts
01-Oct-18 09:10 34.298500 -118.240683 203 8992ft 151kts
01-Oct-18 09:11 34.259828 -118.261039 203 9042ft 151kts
01-Oct-18 09:12 34.220790 -118.281613 204 8999ft 156kts
01-Oct-18 09:13 34.180237 -118.288127 157 8999ft 158kts
01-Oct-18 09:14 34.140854 -118.264614 156 8978ft 159kts
01-Oct-18 09:15 34.101082 -118.241099 156 8952ft 159kts
01-Oct-18 09:16 34.061281 -118.217672 156 8952ft 159kts
01-Oct-18 09:17 34.020819 -118.199049 181 8918ft 154kts
01-Oct-18 09:18 33.977372 -118.200157 182 8265ft 156kts
01-Oct-18 09:19 33.934370 -118.201193 182 7656ft 155kts
01-Oct-18 09:20 33.892165 -118.202008 182 7066ft 154kts
01-Oct-18 09:21 33.852136 -118.202476 182 6958ft 133kts
01-Oct-18 09:22 33.813575 -118.202858 182 6965ft 144kts
01-Oct-18 09:23 33.773400 -118.203358 182 7009ft 145kts
01-Oct-18 09:24 33.732816 -118.203868 182 7009ft 147kts
01-Oct-18 09:25 33.700060 -118.185733 92 6854ft 166kts
01-Oct-18 09:26 33.707544 -118.129052 82 6455ft 172kts
01-Oct-18 09:27 33.715098 -118.072295 82 5832ft 171kts
01-Oct-18 09:28 33.722174 -118.016021 82 5229ft 170kts
01-Oct-18 09:29 33.728651 -117.962324 82 4994ft 149kts
01-Oct-18 09:30 33.734315 -117.915442 81 4998ft 137kts
01-Oct-18 09:31 33.750781 -117.878785 71 5075ft 104kts
01-Oct-18 09:32 33.742014 -117.848088 115 4262ft 101kts
01-Oct-18 09:33 33.717819 -117.843430 201 2501ft 103kts
01-Oct-18 09:34 33.692530 -117.857959 210 780ft 97kts
01-Oct-18 09:35 33.672731 -117.870702 208 60ft 47kts
01-Oct-18 09:36 33.669141 -117.871653 131 60ft 0kts
01-Oct-18 09:37 33.667835 -117.871472 131 60ft 8kts
01-Oct-18 09:38 33.667304 -117.870987 218 60ft 0kts

Navigation Log

Ident Type
Flight plan parsing failed, navigation log unavailable